Sampaio, Brazil
Current Conditions -  °F | °C
As of 6:00 PM on Thursday 18 Dec 2014 (Local Time) from SBIZ Reporting Station
Broken Clouds Broken Clouds  
Wind Chill: 86°   Ceiling: 10000
Heat Index: 99°   Visibility: 6mi
Dew Point: 79°   Wind: 2mph
Humidity: 79%   Direction: 100°E
Pressure: 29.77"   Gusts: NA
Location:  5.35°S, 47.87°W
Report Text: SBIZ 182100Z 10002KT 9999 FEW020 BKN100 30/26 Q1008
Loading
Personal Weather Stations






























Interactive Weather Map New forecast layout! Learn more

10-Day Weather Forecast

Advertisements
Track Severe Weather on mobile